Station Historical Data
Daily Summary for September 21, 2017 Units:  English    Metric   Both
Next Day »
Daily Weekly Monthly Yearly Custom
  High: Low: Average:
Temperature: 58.8 °F 48.5 °F 52.3 °F
Dew Point: 46.4 °F 36.6 °F 42.3 °F
Humidity: 86% 46% 70%
Wind Speed: 15.0mph 0.0mph 0.8mph
Wind Gust: 19.0mph - -
Wind- - SSW
Pressure: 29.93 in 29.80 in -
Precipitation: 0.00 in    
Historical Graphs
 
 
Tabular Data for September 21, 2017
Time Temperature Dew Point Pressure Wind Wind Speed Wind Gust Humidity Rainfall Rate (Hourly) solar Conditions
00:03 51.9 °F 46.3 °F 29.83 in Calm     81% 0.00 in 0.00 W/m2
00:08 51.9 °F 46.3 °F 29.83 in Calm     81% 0.00 in 0.00 W/m2
00:13 51.9 °F 46.3 °F 29.83 in Calm     81% 0.00 in 0.00 W/m2
00:18 51.8 °F 46.2 °F 29.83 in South 2.0 mph 10.0 mph 81% 0.00 in 0.00 W/m2
00:23 51.8 °F 46.2 °F 29.83 in South 7.0 mph 10.0 mph 81% 0.00 in 0.00 W/m2
00:28 51.8 °F 46.2 °F 29.83 in SSE 2.0 mph 10.0 mph 81% 0.00 in 0.00 W/m2
00:33 51.7 °F 46.1 °F 29.83 in South 5.0 mph 10.0 mph 81% 0.00 in 0.00 W/m2
00:38 51.7 °F 46.1 °F 29.82 in Calm   13.0 mph 81% 0.00 in 0.00 W/m2
00:43 51.7 °F 46.4 °F 29.82 in South 6.0 mph 15.0 mph 82% 0.00 in 0.00 W/m2
00:48 51.7 °F 46.1 °F 29.82 in SSE 5.0 mph 11.0 mph 81% 0.00 in 0.00 W/m2
00:53 51.7 °F 46.4 °F 29.83 in Calm   12.0 mph 82% 0.00 in 0.00 W/m2
00:58 51.6 °F 46.3 °F 29.83 in South 6.0 mph 12.0 mph 82% 0.00 in 0.00 W/m2
01:03 51.6 °F 46.3 °F 29.83 in South 7.0 mph 11.0 mph 82% 0.00 in 0.00 W/m2
01:08 51.5 °F 46.2 °F 29.83 in South 6.0 mph 14.0 mph 82% 0.00 in 0.00 W/m2
01:13 51.4 °F 46.1 °F 29.83 in South 11.0 mph 13.0 mph 82% 0.00 in 0.00 W/m2
01:19 51.4 °F 46.1 °F 29.83 in Calm   10.0 mph 82% 0.00 in 0.00 W/m2
01:24 51.4 °F 46.1 °F 29.83 in South 7.0 mph 13.0 mph 82% 0.00 in 0.00 W/m2
01:29 51.3 °F 46.0 °F 29.83 in SSE 6.0 mph 14.0 mph 82% 0.00 in 0.00 W/m2
01:34 51.3 °F 46.0 °F 29.82 in Calm   13.0 mph 82% 0.00 in 0.00 W/m2
01:39 51.2 °F 45.9 °F 29.83 in SSE 11.0 mph 11.0 mph 82% 0.00 in 0.00 W/m2
01:44 51.2 °F 45.9 °F 29.83 in SSE 6.0 mph 12.0 mph 82% 0.00 in 0.00 W/m2
01:49 51.1 °F 45.8 °F 29.83 in Calm   12.0 mph 82% 0.00 in 0.00 W/m2
01:54 51.1 °F 45.8 °F 29.83 in Calm   10.0 mph 82% 0.00 in 0.00 W/m2
01:59 51.0 °F 45.7 °F 29.83 in SSE 4.0 mph 11.0 mph 82% 0.00 in 0.00 W/m2
02:04 51.0 °F 45.7 °F 29.82 in SSE 9.0 mph 11.0 mph 82% 0.00 in 0.00 W/m2
02:09 50.9 °F 45.6 °F 29.82 in Calm   7.0 mph 82% 0.00 in 0.00 W/m2
02:14 50.9 °F 45.6 °F 29.82 in Calm     82% 0.00 in 0.00 W/m2
02:19 50.9 °F 45.6 °F 29.82 in Calm   13.0 mph 82% 0.00 in 0.00 W/m2
02:24 50.9 °F 45.6 °F 29.82 in Calm     82% 0.00 in 0.00 W/m2
02:29 50.8 °F 45.8 °F 29.82 in Calm     83% 0.00 in 0.00 W/m2
02:34 50.8 °F 45.8 °F 29.82 in Calm     83% 0.00 in 0.00 W/m2
02:39 50.8 °F 45.8 °F 29.82 in Calm     83% 0.00 in 0.00 W/m2
02:44 50.8 °F 45.8 °F 29.81 in Calm     83% 0.00 in 0.00 W/m2
02:49 50.8 °F 45.8 °F 29.81 in Calm     83% 0.00 in 0.00 W/m2
02:54 50.8 °F 45.8 °F 29.82 in Calm     83% 0.00 in 0.00 W/m2
02:59 50.8 °F 45.8 °F 29.82 in Calm     83% 0.00 in 0.00 W/m2
03:04 50.8 °F 45.8 °F 29.81 in Calm   11.0 mph 83% 0.00 in 0.00 W/m2
03:09 50.8 °F 45.8 °F 29.81 in SSE 8.0 mph 12.0 mph 83% 0.00 in 0.00 W/m2
03:14 50.8 °F 45.8 °F 29.81 in Calm   9.0 mph 83% 0.00 in 0.00 W/m2
03:19 50.7 °F 45.7 °F 29.81 in Calm   10.0 mph 83% 0.00 in 0.00 W/m2
03:24 50.7 °F 45.7 °F 29.81 in SSE 8.0 mph 11.0 mph 83% 0.00 in 0.00 W/m2
03:25 50.7 °F 45.7 °F 29.81 in Calm   11.0 mph 83% 0.00 in 0.00 W/m2
03:30 50.6 °F 45.6 °F 29.80 in SSE 7.0 mph 11.0 mph 83% 0.00 in 0.00 W/m2
03:35 50.6 °F 45.6 °F 29.80 in SSE 9.0 mph 14.0 mph 83% 0.00 in 0.00 W/m2
03:40 50.5 °F 45.5 °F 29.80 in Calm   11.0 mph 83% 0.00 in 0.00 W/m2
03:51 50.3 °F 45.3 °F 29.80 in Calm   12.0 mph 83% 0.00 in 0.00 W/m2
03:56 50.3 °F 45.3 °F 29.80 in Calm     83% 0.00 in 0.00 W/m2
04:01 50.3 °F 45.3 °F 29.80 in Calm     83% 0.00 in 0.00 W/m2
04:06 50.2 °F 45.2 °F 29.81 in Calm     83% 0.00 in 0.00 W/m2
04:11 50.2 °F 45.2 °F 29.81 in Calm     83% 0.00 in 0.00 W/m2
04:16 50.1 °F 45.2 °F 29.81 in Calm     83% 0.00 in 0.00 W/m2
04:21 50.1 °F 45.2 °F 29.81 in Calm     83% 0.00 in 0.00 W/m2
04:26 50.1 °F 45.2 °F 29.80 in Calm     83% 0.00 in 0.00 W/m2
04:36 49.9 °F 45.0 °F 29.81 in Calm     83% 0.00 in 0.00 W/m2
04:41 49.9 °F 45.0 °F 29.80 in Calm     83% 0.00 in 0.00 W/m2
04:46 49.9 °F 45.0 °F 29.80 in Calm     83% 0.00 in 0.00 W/m2
04:51 49.8 °F 44.8 °F 29.80 in Calm     83% 0.00 in 0.00 W/m2
04:56 49.8 °F 44.8 °F 29.81 in Calm     83% 0.00 in 0.00 W/m2
05:01 49.7 °F 44.8 °F 29.80 in Calm     83% 0.00 in 0.00 W/m2
05:06 49.6 °F 44.7 °F 29.80 in Calm     83% 0.00 in 0.00 W/m2
05:11 49.6 °F 44.7 °F 29.80 in Calm     83% 0.00 in 0.00 W/m2
05:16 49.6 °F 44.7 °F 29.80 in Calm     83% 0.00 in 0.00 W/m2
05:21 49.6 °F 44.7 °F 29.80 in Calm     83% 0.00 in 0.00 W/m2
05:26 49.6 °F 44.7 °F 29.80 in Calm     83% 0.00 in 0.00 W/m2
05:31 49.6 °F 44.7 °F 29.80 in Calm     83% 0.00 in 0.00 W/m2
05:36 49.5 °F 44.6 °F 29.81 in Calm     83% 0.00 in 0.00 W/m2
05:41 49.4 °F 44.5 °F 29.81 in Calm     83% 0.00 in 0.00 W/m2
05:46 49.4 °F 44.8 °F 29.81 in Calm     84% 0.00 in 0.00 W/m2
05:51 49.3 °F 44.7 °F 29.81 in Calm     84% 0.00 in 0.00 W/m2
05:56 49.3 °F 44.7 °F 29.81 in Calm     84% 0.00 in 0.00 W/m2
06:01 49.3 °F 44.7 °F 29.81 in Calm     84% 0.00 in 0.00 W/m2
06:06 49.3 °F 44.7 °F 29.81 in Calm     84% 0.00 in 0.00 W/m2
06:11 49.3 °F 44.7 °F 29.81 in Calm     84% 0.00 in 0.00 W/m2
06:16 49.2 °F 44.6 °F 29.82 in Calm     84% 0.00 in 0.00 W/m2
06:21 49.2 °F 44.6 °F 29.82 in Calm     84% 0.00 in 0.00 W/m2
06:26 49.1 °F 44.5 °F 29.82 in Calm     84% 0.00 in 0.00 W/m2
06:31 49.0 °F 44.4 °F 29.82 in Calm     84% 0.00 in 0.00 W/m2
06:36 48.9 °F 44.3 °F 29.82 in Calm     84% 0.00 in 0.00 W/m2
06:41 48.8 °F 44.5 °F 29.82 in Calm     85% 0.00 in 0.00 W/m2
06:46 48.8 °F 44.5 °F 29.82 in Calm     85% 0.00 in 0.00 W/m2
06:51 48.8 °F 44.5 °F 29.82 in Calm     85% 0.00 in 5.00 W/m2
06:56 48.7 °F 44.4 °F 29.82 in Calm     85% 0.00 in 7.00 W/m2
07:01 48.7 °F 44.4 °F 29.82 in Calm     85% 0.00 in 9.00 W/m2
07:06 48.7 °F 44.4 °F 29.82 in Calm     85% 0.00 in 9.00 W/m2
07:11 48.7 °F 44.4 °F 29.82 in Calm     85% 0.00 in 11.00 W/m2
07:16 48.6 °F 44.3 °F 29.82 in Calm     85% 0.00 in 12.00 W/m2
07:21 48.6 °F 44.3 °F 29.83 in Calm     85% 0.00 in 16.00 W/m2
07:26 48.6 °F 44.3 °F 29.83 in Calm     85% 0.00 in 19.00 W/m2
07:31 48.6 °F 44.3 °F 29.83 in Calm     85% 0.00 in 21.00 W/m2
07:36 48.6 °F 44.3 °F 29.83 in Calm     85% 0.00 in 19.00 W/m2
07:41 48.6 °F 44.3 °F 29.83 in Calm     85% 0.00 in 19.00 W/m2
07:46 48.6 °F 44.3 °F 29.83 in Calm     85% 0.00 in 21.00 W/m2
07:51 48.6 °F 44.3 °F 29.83 in Calm     85% 0.00 in 26.00 W/m2
07:56 48.6 °F 44.3 °F 29.83 in Calm     85% 0.00 in 30.00 W/m2
08:01 48.6 °F 44.3 °F 29.83 in Calm     85% 0.00 in 142.00 W/m2
08:06 48.5 °F 44.2 °F 29.83 in Calm     85% 0.00 in 100.00 W/m2
08:11 48.5 °F 44.2 °F 29.84 in Calm     85% 0.00 in 105.00 W/m2
08:16 48.5 °F 44.2 °F 29.84 in Calm     85% 0.00 in 51.00 W/m2
08:21 48.5 °F 44.2 °F 29.84 in Calm     85% 0.00 in 53.00 W/m2
08:26 48.5 °F 44.2 °F 29.84 in Calm     85% 0.00 in 76.00 W/m2
08:31 48.5 °F 44.2 °F 29.84 in Calm     85% 0.00 in 185.00 W/m2
08:36 48.5 °F 44.2 °F 29.84 in Calm     85% 0.00 in 109.00 W/m2
08:41 48.5 °F 44.5 °F 29.84 in Calm     86% 0.00 in 163.00 W/m2
08:46 48.5 °F 44.5 °F 29.85 in Calm     86% 0.00 in 116.00 W/m2
08:51 48.5 °F 44.5 °F 29.85 in Calm     86% 0.00 in 411.00 W/m2
08:56 48.6 °F 44.6 °F 29.85 in Calm     86% 0.00 in 513.00 W/m2
09:01 48.6 °F 44.3 °F 29.85 in Calm     85% 0.00 in 517.00 W/m2
09:06 48.7 °F 44.4 °F 29.85 in Calm     85% 0.00 in 345.00 W/m2
09:11 48.8 °F 44.2 °F 29.85 in Calm     84% 0.00 in 285.00 W/m2
09:16 49.0 °F 44.1 °F 29.85 in Calm     83% 0.00 in 578.00 W/m2
09:22 49.1 °F 44.2 °F 29.85 in Calm     83% 0.00 in 584.00 W/m2
09:23 49.2 °F 44.3 °F 29.85 in Calm     83% 0.00 in 601.00 W/m2
09:28 49.4 °F 44.5 °F 29.86 in Calm     83% 0.00 in 587.00 W/m2
09:33 49.6 °F 44.3 °F 29.86 in Calm     82% 0.00 in 642.00 W/m2
09:38 49.8 °F 44.2 °F 29.86 in Calm     81% 0.00 in 241.00 W/m2
09:43 50.0 °F 43.4 °F 29.86 in Calm     78% 0.00 in 543.00 W/m2
09:48 50.2 °F 43.6 °F 29.86 in Calm     78% 0.00 in 334.00 W/m2
09:53 50.4 °F 43.5 °F 29.86 in SSW 1.0 mph 3.0 mph 77% 0.00 in 311.00 W/m2
09:59 50.6 °F 44.0 °F 29.86 in Calm     78% 0.00 in 285.00 W/m2
10:04 50.8 °F 44.2 °F 29.86 in Calm     78% 0.00 in 318.00 W/m2
10:09 50.9 °F 44.3 °F 29.86 in Calm   3.0 mph 78% 0.00 in 325.00 W/m2
10:14 51.1 °F 44.5 °F 29.86 in Calm   1.0 mph 78% 0.00 in 325.00 W/m2
10:19 51.2 °F 44.6 °F 29.87 in Calm   1.0 mph 78% 0.00 in 246.00 W/m2
10:24 51.3 °F 44.7 °F 29.87 in Calm     78% 0.00 in 192.00 W/m2
10:29 51.2 °F 44.2 °F 29.87 in Calm     77% 0.00 in 218.00 W/m2
10:34 51.2 °F 44.2 °F 29.87 in SSW 1.0 mph 1.0 mph 77% 0.00 in 838.00 W/m2
10:39 51.2 °F 43.9 °F 29.87 in SSW 1.0 mph 1.0 mph 76% 0.00 in 260.00 W/m2
10:44 51.2 °F 42.5 °F 29.87 in Calm     72% 0.00 in 200.00 W/m2
10:49 51.3 °F 43.0 °F 29.87 in Calm     73% 0.00 in 151.00 W/m2
10:54 51.3 °F 43.7 °F 29.86 in Calm     75% 0.00 in 134.00 W/m2
10:59 51.3 °F 43.7 °F 29.86 in Calm     75% 0.00 in 220.00 W/m2
11:04 51.4 °F 43.4 °F 29.87 in Calm     74% 0.00 in 206.00 W/m2
11:09 51.4 °F 43.0 °F 29.87 in Calm     73% 0.00 in 775.00 W/m2
11:14 51.6 °F 42.2 °F 29.86 in Calm   4.0 mph 70% 0.00 in 826.00 W/m2
11:19 51.8 °F 43.1 °F 29.86 in Calm   1.0 mph 72% 0.00 in 230.00 W/m2
11:24 52.0 °F 42.5 °F 29.86 in Calm     70% 0.00 in 267.00 W/m2
11:29 52.2 °F 43.5 °F 29.86 in SW 4.0 mph 9.0 mph 72% 0.00 in 812.00 W/m2
11:34 52.5 °F 42.6 °F 29.86 in Calm   1.0 mph 69% 0.00 in 283.00 W/m2
11:39 52.8 °F 42.9 °F 29.86 in Calm   1.0 mph 69% 0.00 in 258.00 W/m2
11:44 53.2 °F 43.3 °F 29.86 in Calm   1.0 mph 69% 0.00 in 939.00 W/m2
11:49 53.6 °F 43.3 °F 29.86 in Calm   2.0 mph 68% 0.00 in 919.00 W/m2
11:54 54.2 °F 43.1 °F 29.86 in Calm   1.0 mph 66% 0.00 in 958.00 W/m2
11:59 54.9 °F 43.4 °F 29.86 in Calm   12.0 mph 65% 0.00 in 921.00 W/m2
12:04 55.4 °F 42.2 °F 29.86 in SW 1.0 mph 2.0 mph 61% 0.00 in 930.00 W/m2
12:09 55.7 °F 42.5 °F 29.86 in Calm   3.0 mph 61% 0.00 in 939.00 W/m2
12:14 55.9 °F 42.7 °F 29.86 in Calm   2.0 mph 61% 0.00 in 875.00 W/m2
12:19 56.1 °F 42.4 °F 29.86 in Calm   10.0 mph 60% 0.00 in 884.00 W/m2
12:24 56.4 °F 41.4 °F 29.86 in WSW 4.0 mph 12.0 mph 57% 0.00 in 874.00 W/m2
12:29 56.3 °F 41.7 °F 29.86 in Calm   11.0 mph 58% 0.00 in 381.00 W/m2
12:34 56.2 °F 42.1 °F 29.86 in SW 9.0 mph 12.0 mph 59% 0.00 in 824.00 W/m2
12:39 56.2 °F 41.2 °F 29.86 in Calm   9.0 mph 57% 0.00 in 831.00 W/m2
12:44 56.2 °F 41.2 °F 29.86 in WSW 10.0 mph 12.0 mph 57% 0.00 in 846.00 W/m2
12:49 56.3 °F 41.3 °F 29.86 in Calm     57% 0.00 in 879.00 W/m2
12:54 56.5 °F 41.0 °F 29.86 in Calm   15.0 mph 56% 0.00 in 868.00 W/m2
12:59 56.9 °F 42.3 °F 29.86 in Calm   9.0 mph 58% 0.00 in 884.00 W/m2
13:04 57.4 °F 41.4 °F 29.86 in Calm   11.0 mph 55% 0.00 in 870.00 W/m2
13:09 57.9 °F 40.9 °F 29.86 in West 8.0 mph 19.0 mph 53% 0.00 in 872.00 W/m2
13:14 58.1 °F 40.1 °F 29.86 in Calm   9.0 mph 51% 0.00 in 846.00 W/m2
13:19 58.2 °F 39.7 °F 29.86 in SW 7.0 mph 15.0 mph 50% 0.00 in 833.00 W/m2
13:24 58.1 °F 39.1 °F 29.86 in Calm   14.0 mph 49% 0.00 in 858.00 W/m2
13:29 57.9 °F 38.9 °F 29.86 in SW 9.0 mph 15.0 mph 49% 0.00 in 833.00 W/m2
13:34 58.3 °F 38.7 °F 29.86 in Calm   10.0 mph 48% 0.00 in 858.00 W/m2
13:36 58.4 °F 38.3 °F 29.86 in WSW 1.0 mph 1.0 mph 47% 0.00 in 881.00 W/m2
13:41 58.7 °F 39.1 °F 29.86 in Calm   6.0 mph 48% 0.00 in 893.00 W/m2
13:46 58.8 °F 38.1 °F 29.86 in Calm   2.0 mph 46% 0.00 in 895.00 W/m2
13:51 58.1 °F 37.5 °F 29.86 in Calm   1.0 mph 46% 0.00 in 253.00 W/m2
13:56 57.5 °F 37.5 °F 29.87 in West 1.0 mph 10.0 mph 47% 0.00 in 682.00 W/m2
14:01 57.3 °F 37.8 °F 29.87 in Calm   1.0 mph 48% 0.00 in 265.00 W/m2
14:06 57.1 °F 38.7 °F 29.87 in Calm   9.0 mph 50% 0.00 in 160.00 W/m2
14:11 57.2 °F 39.2 °F 29.86 in SW 8.0 mph 8.0 mph 51% 0.00 in 863.00 W/m2
14:16 57.3 °F 38.3 °F 29.87 in Calm   11.0 mph 49% 0.00 in 179.00 W/m2
14:21 57.3 °F 38.8 °F 29.87 in Calm   3.0 mph 50% 0.00 in 868.00 W/m2
14:26 57.3 °F 38.3 °F 29.87 in Calm   1.0 mph 49% 0.00 in 846.00 W/m2
14:32 57.5 °F 39.0 °F 29.87 in Calm   6.0 mph 50% 0.00 in 831.00 W/m2
14:37 57.8 °F 38.3 °F 29.87 in Calm     48% 0.00 in 232.00 W/m2
14:42 57.7 °F 38.7 °F 29.87 in Calm   3.0 mph 49% 0.00 in 867.00 W/m2
14:47 57.8 °F 37.7 °F 29.87 in WSW 15.0 mph 15.0 mph 47% 0.00 in 895.00 W/m2
14:52 57.9 °F 37.3 °F 29.87 in Calm   1.0 mph 46% 0.00 in 895.00 W/m2
14:57 57.8 °F 38.8 °F 29.87 in SW 1.0 mph 1.0 mph 49% 0.00 in 851.00 W/m2
15:02 57.7 °F 37.1 °F 29.87 in WSW 10.0 mph 10.0 mph 46% 0.00 in 793.00 W/m2
15:07 57.8 °F 37.7 °F 29.87 in WSW 4.0 mph 9.0 mph 47% 0.00 in 802.00 W/m2
15:12 58.1 °F 38.0 °F 29.87 in Calm   1.0 mph 47% 0.00 in 251.00 W/m2
15:17 58.4 °F 38.3 °F 29.86 in Calm     47% 0.00 in 276.00 W/m2
15:22 58.3 °F 38.2 °F 29.87 in Calm     47% 0.00 in 371.00 W/m2
15:27 58.2 °F 37.5 °F 29.87 in NW 1.0 mph 1.0 mph 46% 0.00 in 255.00 W/m2
15:32 57.8 °F 37.2 °F 29.87 in WNW 1.0 mph 1.0 mph 46% 0.00 in 269.00 W/m2
15:37 57.5 °F 37.5 °F 29.87 in NW 1.0 mph 3.0 mph 47% 0.00 in 327.00 W/m2
15:42 57.3 °F 38.3 °F 29.87 in WNW 1.0 mph 1.0 mph 49% 0.00 in 237.00 W/m2
15:47 57.2 °F 37.7 °F 29.87 in Calm     48% 0.00 in 207.00 W/m2
15:52 57.2 °F 36.6 °F 29.87 in Calm     46% 0.00 in 195.00 W/m2
15:57 57.1 °F 37.1 °F 29.87 in Calm     47% 0.00 in 193.00 W/m2
16:02 57.0 °F 37.0 °F 29.86 in Calm     47% 0.00 in 253.00 W/m2
16:07 56.9 °F 38.0 °F 29.87 in Calm     49% 0.00 in 675.00 W/m2
16:12 56.9 °F 39.0 °F 29.86 in Calm     51% 0.00 in 638.00 W/m2
16:17 56.8 °F 38.4 °F 29.86 in Calm     50% 0.00 in 429.00 W/m2
16:22 56.7 °F 39.3 °F 29.87 in Calm     52% 0.00 in 169.00 W/m2
16:27 56.6 °F 39.7 °F 29.87 in Calm     53% 0.00 in 478.00 W/m2
16:32 56.5 °F 40.1 °F 29.87 in Calm     54% 0.00 in 413.00 W/m2
16:37 56.4 °F 40.5 °F 29.87 in Calm   3.0 mph 55% 0.00 in 155.00 W/m2
16:42 56.4 °F 39.5 °F 29.87 in Calm     53% 0.00 in 431.00 W/m2
16:47 56.2 °F 39.8 °F 29.87 in Calm     54% 0.00 in 174.00 W/m2
16:52 56.2 °F 40.3 °F 29.87 in Calm     55% 0.00 in 383.00 W/m2
16:57 56.2 °F 40.7 °F 29.88 in Calm     56% 0.00 in 218.00 W/m2
17:02 56.3 °F 40.4 °F 29.88 in Calm     55% 0.00 in 165.00 W/m2
17:07 56.3 °F 39.9 °F 29.88 in Calm     54% 0.00 in 155.00 W/m2
17:12 56.3 °F 39.4 °F 29.88 in Calm     53% 0.00 in 153.00 W/m2
17:17 56.2 °F 39.3 °F 29.88 in Calm     53% 0.00 in 156.00 W/m2
17:22 56.2 °F 40.3 °F 29.89 in Calm     55% 0.00 in 267.00 W/m2
17:27 56.2 °F 40.3 °F 29.88 in Calm     55% 0.00 in 295.00 W/m2
17:32 56.2 °F 40.7 °F 29.89 in Calm     56% 0.00 in 255.00 W/m2
17:37 56.1 °F 39.7 °F 29.89 in Calm     54% 0.00 in 227.00 W/m2
17:42 56.1 °F 39.7 °F 29.89 in Calm     54% 0.00 in 206.00 W/m2
17:47 56.1 °F 39.7 °F 29.89 in Calm     54% 0.00 in 192.00 W/m2
17:52 56.1 °F 40.6 °F 29.89 in Calm     56% 0.00 in 179.00 W/m2
17:57 56.1 °F 41.1 °F 29.89 in Calm     57% 0.00 in 160.00 W/m2
18:02 56.1 °F 41.1 °F 29.89 in Calm   2.0 mph 57% 0.00 in 137.00 W/m2
18:07 56.0 °F 40.1 °F 29.89 in Calm     55% 0.00 in 120.00 W/m2
18:12 56.0 °F 40.5 °F 29.89 in Calm     56% 0.00 in 97.00 W/m2
18:17 55.9 °F 40.9 °F 29.89 in Calm     57% 0.00 in 76.00 W/m2
18:22 55.9 °F 40.9 °F 29.89 in Calm     57% 0.00 in 63.00 W/m2
18:27 55.9 °F 40.9 °F 29.89 in Calm     57% 0.00 in 51.00 W/m2
18:32 55.8 °F 40.8 °F 29.89 in Calm     57% 0.00 in 25.00 W/m2
18:38 55.7 °F 40.7 °F 29.89 in Calm     57% 0.00 in 16.00 W/m2
18:43 55.5 °F 41.4 °F 29.89 in Calm     59% 0.00 in 12.00 W/m2
18:48 55.4 °F 41.3 °F 29.89 in Calm     59% 0.00 in 11.00 W/m2
18:53 55.1 °F 41.0 °F 29.89 in Calm     59% 0.00 in 9.00 W/m2
18:58 54.7 °F 41.1 °F 29.89 in Calm     60% 0.00 in 7.00 W/m2
19:03 54.4 °F 40.8 °F 29.89 in Calm     60% 0.00 in 5.00 W/m2
19:08 54.2 °F 41.1 °F 29.89 in Calm     61% 0.00 in 0.00 W/m2
19:18 53.7 °F 41.0 °F 29.89 in Calm     62% 0.00 in 0.00 W/m2
19:23 53.2 °F 40.5 °F 29.89 in Calm     62% 0.00 in 0.00 W/m2
19:28 52.9 °F 40.2 °F 29.89 in Calm     62% 0.00 in 0.00 W/m2
19:33 52.7 °F 40.1 °F 29.90 in Calm     62% 0.00 in 0.00 W/m2
19:38 52.6 °F 40.4 °F 29.90 in Calm     63% 0.00 in 0.00 W/m2
19:43 52.4 °F 40.2 °F 29.90 in Calm     63% 0.00 in 0.00 W/m2
19:48 52.2 °F 40.0 °F 29.90 in Calm     63% 0.00 in 0.00 W/m2
19:53 52.1 °F 40.3 °F 29.90 in Calm     64% 0.00 in 0.00 W/m2
19:58 51.9 °F 40.1 °F 29.90 in Calm     64% 0.00 in 0.00 W/m2
20:03 51.7 °F 39.9 °F 29.90 in Calm     64% 0.00 in 0.00 W/m2
20:08 51.6 °F 39.8 °F 29.90 in Calm     64% 0.00 in 0.00 W/m2
20:13 51.4 °F 39.7 °F 29.90 in Calm     64% 0.00 in 0.00 W/m2
20:18 51.3 °F 39.5 °F 29.90 in Calm     64% 0.00 in 0.00 W/m2
20:23 51.3 °F 39.5 °F 29.90 in Calm     64% 0.00 in 0.00 W/m2
20:28 51.2 °F 39.8 °F 29.91 in Calm     65% 0.00 in 0.00 W/m2
20:34 51.2 °F 39.8 °F 29.90 in Calm     65% 0.00 in 0.00 W/m2
20:39 51.1 °F 39.8 °F 29.90 in Calm     65% 0.00 in 0.00 W/m2
20:44 51.1 °F 39.8 °F 29.91 in Calm     65% 0.00 in 0.00 W/m2
20:49 51.0 °F 39.7 °F 29.91 in Calm     65% 0.00 in 0.00 W/m2
20:54 51.0 °F 39.7 °F 29.91 in Calm     65% 0.00 in 0.00 W/m2
20:59 51.0 °F 40.1 °F 29.91 in Calm     66% 0.00 in 0.00 W/m2
21:04 51.0 °F 40.1 °F 29.91 in Calm     66% 0.00 in 0.00 W/m2
21:09 51.0 °F 40.1 °F 29.91 in Calm     66% 0.00 in 0.00 W/m2
21:14 50.9 °F 40.3 °F 29.91 in Calm     67% 0.00 in 0.00 W/m2
21:19 50.9 °F 40.3 °F 29.92 in Calm     67% 0.00 in 0.00 W/m2
21:24 50.8 °F 40.2 °F 29.91 in Calm     67% 0.00 in 0.00 W/m2
21:29 50.8 °F 40.2 °F 29.91 in Calm     67% 0.00 in 0.00 W/m2
21:34 50.8 °F 40.2 °F 29.92 in Calm     67% 0.00 in 0.00 W/m2
21:39 50.7 °F 40.5 °F 29.91 in Calm     68% 0.00 in 0.00 W/m2
21:44 50.6 °F 40.4 °F 29.91 in Calm     68% 0.00 in 0.00 W/m2
21:49 50.6 °F 40.4 °F 29.91 in Calm     68% 0.00 in 0.00 W/m2
21:54 50.4 °F 40.2 °F 29.91 in Calm     68% 0.00 in 0.00 W/m2
21:59 50.4 °F 40.2 °F 29.91 in Calm     68% 0.00 in 0.00 W/m2
22:04 50.3 °F 40.2 °F 29.91 in Calm     68% 0.00 in 0.00 W/m2
22:09 50.2 °F 40.4 °F 29.92 in Calm     69% 0.00 in 0.00 W/m2
22:14 50.2 °F 40.4 °F 29.92 in Calm     69% 0.00 in 0.00 W/m2
22:19 50.1 °F 40.3 °F 29.92 in Calm     69% 0.00 in 0.00 W/m2
22:24 50.1 °F 40.3 °F 29.92 in Calm     69% 0.00 in 0.00 W/m2
22:29 50.0 °F 40.2 °F 29.92 in Calm     69% 0.00 in 0.00 W/m2
22:34 50.0 °F 40.2 °F 29.92 in Calm     69% 0.00 in 0.00 W/m2
22:39 49.9 °F 40.2 °F 29.92 in Calm     69% 0.00 in 0.00 W/m2
22:42 49.8 °F 40.4 °F 29.92 in Calm     70% 0.00 in 0.00 W/m2
22:47 49.8 °F 40.4 °F 29.92 in Calm     70% 0.00 in 0.00 W/m2
22:52 49.7 °F 40.3 °F 29.92 in Calm     70% 0.00 in 0.00 W/m2
22:57 49.5 °F 40.5 °F 29.92 in Calm     71% 0.00 in 0.00 W/m2
23:02 49.4 °F 40.4 °F 29.92 in Calm     71% 0.00 in 0.00 W/m2
23:07 49.2 °F 40.2 °F 29.92 in Calm     71% 0.00 in 0.00 W/m2
23:12 49.1 °F 40.1 °F 29.93 in Calm     71% 0.00 in 0.00 W/m2
23:17 49.0 °F 40.0 °F 29.93 in Calm     71% 0.00 in 0.00 W/m2
23:22 49.0 °F 40.0 °F 29.93 in Calm     71% 0.00 in 0.00 W/m2
23:27 48.8 °F 40.2 °F 29.93 in Calm     72% 0.00 in 0.00 W/m2
23:32 48.7 °F 40.1 °F 29.93 in Calm     72% 0.00 in 0.00 W/m2
23:37 48.7 °F 40.1 °F 29.93 in Calm     72% 0.00 in 0.00 W/m2
23:42 48.6 °F 40.0 °F 29.93 in Calm     72% 0.00 in 0.00 W/m2
23:47 48.6 °F 40.0 °F 29.93 in Calm     72% 0.00 in 0.00 W/m2
23:53 48.5 °F 39.9 °F 29.93 in Calm     72% 0.00 in 0.00 W/m2
23:58 48.5 °F 39.9 °F 29.93 in Calm     72% 0.00 in 0.00 W/m2
Foresthill Weather
 WU-history PHP script courtesy of   Juneau County Weather.
powered by Cumulus v1.9.3 (1059)
Ambient Weather VWS v14.00
Top Contact Website Map Copyright © 2007 - 2018 Foresthillweather.com Never base important decisions on this or any weather information obtained from the Internet